createdAt,value
2022-12-04T00:02:04.323Z,13.57
2022-12-04T00:04:33.661Z,13.73
2022-12-04T00:07:03.436Z,13.47
2022-12-04T00:09:31.577Z,14.63
2022-12-04T00:12:01.976Z,14.27
2022-12-04T00:14:30.242Z,14.33
2022-12-04T00:16:58.479Z,12.93
2022-12-04T00:19:26.624Z,12.17
2022-12-04T00:21:54.716Z,13.07
2022-12-04T00:24:23.218Z,12.90
2022-12-04T00:26:51.379Z,13.50
2022-12-04T00:29:20.992Z,14.00
2022-12-04T00:31:49.490Z,13.53
2022-12-04T00:34:19.176Z,13.23
2022-12-04T00:36:47.564Z,14.03
2022-12-04T00:39:16.172Z,13.13
2022-12-04T00:41:44.283Z,14.13
2022-12-04T00:44:12.704Z,14.47
2022-12-04T00:46:43.032Z,12.20
2022-12-04T00:49:11.191Z,14.03
2022-12-04T00:51:40.822Z,13.87
2022-12-04T00:54:09.329Z,13.63
2022-12-04T00:56:37.569Z,13.83
2022-12-04T00:59:05.970Z,12.90
2022-12-04T01:01:34.188Z,12.93
2022-12-04T01:04:05.047Z,13.97
2022-12-04T01:06:36.649Z,13.67
2022-12-04T01:09:06.858Z,13.40
2022-12-04T01:11:35.631Z,12.73
2022-12-04T01:14:04.234Z,14.93
2022-12-04T01:16:36.446Z,13.93
2022-12-04T01:19:09.521Z,14.37
2022-12-04T01:21:39.054Z,13.83
2022-12-04T01:24:08.901Z,13.20
2022-12-04T01:26:37.178Z,13.70
2022-12-04T01:29:06.019Z,13.13
2022-12-04T01:31:34.802Z,13.83
2022-12-04T01:34:02.990Z,13.43
2022-12-04T01:36:33.105Z,13.77
2022-12-04T01:39:01.343Z,13.90
2022-12-04T01:41:32.329Z,13.53
2022-12-04T01:44:17.954Z,12.83
2022-12-04T01:46:48.404Z,12.80
2022-12-04T01:49:22.311Z,13.73
2022-12-04T01:51:57.459Z,12.27
2022-12-04T01:54:30.705Z,11.63
2022-12-04T01:57:07.242Z,12.93
2022-12-04T01:59:44.437Z,12.77
2022-12-04T02:02:18.900Z,12.77
2022-12-04T02:04:49.502Z,13.57
2022-12-04T02:07:19.133Z,12.93
2022-12-04T02:09:53.909Z,12.97
2022-12-04T02:12:34.091Z,12.57
2022-12-04T02:15:15.775Z,11.93
2022-12-04T02:17:57.133Z,12.70
2022-12-04T02:20:37.995Z,12.10
2022-12-04T02:23:37.049Z,11.87
2022-12-04T02:26:30.120Z,11.20
2022-12-04T02:29:08.822Z,12.30
2022-12-04T02:31:50.365Z,11.27
2022-12-04T02:34:28.107Z,11.00
2022-12-04T02:37:04.238Z,11.23
2022-12-04T02:39:41.163Z,11.57
2022-12-04T02:42:18.434Z,12.23
2022-12-04T02:44:55.059Z,12.27
2022-12-04T02:47:27.554Z,11.33
2022-12-04T02:50:02.382Z,11.40
2022-12-04T02:52:36.463Z,12.23
2022-12-04T02:55:10.973Z,12.33
2022-12-04T02:57:46.625Z,11.40
2022-12-04T03:00:17.786Z,12.63
2022-12-04T03:02:58.124Z,11.30
2022-12-04T03:05:43.225Z,10.83
2022-12-04T03:08:18.650Z,12.17
2022-12-04T03:10:56.581Z,10.67
2022-12-04T03:13:34.042Z,10.87
2022-12-04T03:16:11.444Z,11.53
2022-12-04T03:18:44.773Z,11.10
2022-12-04T03:21:19.703Z,11.43
2022-12-04T03:23:56.776Z,11.93
2022-12-04T03:26:32.627Z,11.70
2022-12-04T03:29:11.715Z,11.70
2022-12-04T03:31:50.118Z,12.57
2022-12-04T03:34:33.964Z,11.80
2022-12-04T03:37:12.348Z,10.53
2022-12-04T03:39:55.073Z,11.50
2022-12-04T03:42:30.117Z,11.03
2022-12-04T03:45:08.634Z,11.40
2022-12-04T03:47:47.413Z,11.03
2022-12-04T03:50:21.887Z,11.07
2022-12-04T03:53:01.218Z,10.83
2022-12-04T03:55:37.372Z,10.30
2022-12-04T03:58:13.443Z,10.47
2022-12-04T04:00:47.348Z,10.80
2022-12-04T04:03:24.401Z,11.57
2022-12-04T04:06:00.762Z,11.00
2022-12-04T04:08:35.914Z,10.40
2022-12-04T04:11:14.571Z,12.47
2022-12-04T04:14:10.691Z,11.13
2022-12-04T04:17:04.479Z,10.90
2022-12-04T04:19:57.535Z,11.63
2022-12-04T04:22:45.772Z,11.60
2022-12-04T04:25:21.689Z,10.97
2022-12-04T04:27:54.657Z,12.47
2022-12-04T04:30:23.262Z,11.20
2022-12-04T04:33:01.790Z,10.93
2022-12-04T04:35:46.304Z,11.63
2022-12-04T04:38:28.298Z,11.20
2022-12-04T04:41:01.855Z,11.60
2022-12-04T04:43:37.134Z,10.90
2022-12-04T04:46:12.901Z,11.90
2022-12-04T04:48:47.048Z,12.37
2022-12-04T04:51:18.100Z,11.73
2022-12-04T04:53:51.011Z,11.17
2022-12-04T04:56:21.402Z,12.57
2022-12-04T04:58:49.964Z,11.67
2022-12-04T05:01:22.276Z,11.90
2022-12-04T05:03:50.510Z,11.10
2022-12-04T05:06:21.167Z,11.53
2022-12-04T05:08:49.507Z,11.30
2022-12-04T05:11:18.316Z,11.30
2022-12-04T05:13:46.990Z,11.17
2022-12-04T05:16:17.430Z,11.90
2022-12-04T05:19:07.202Z,10.63
2022-12-04T05:21:36.103Z,11.60
2022-12-04T05:24:04.958Z,11.43
2022-12-04T05:26:33.096Z,12.33
2022-12-04T05:29:01.217Z,12.17
2022-12-04T05:31:30.019Z,12.50
2022-12-04T05:33:58.960Z,12.33
2022-12-04T05:36:27.193Z,12.30
2022-12-04T05:38:56.793Z,11.40
2022-12-04T05:41:26.154Z,12.83
2022-12-04T05:43:54.261Z,12.10
2022-12-04T05:46:22.963Z,12.87
2022-12-04T05:48:51.291Z,12.17
2022-12-04T05:51:19.410Z,11.83
2022-12-04T05:53:47.519Z,13.40
2022-12-04T05:56:18.563Z,11.17
2022-12-04T05:58:47.265Z,11.80
2022-12-04T06:01:20.144Z,12.27
2022-12-04T06:03:48.877Z,12.17
2022-12-04T06:06:22.052Z,12.13
2022-12-04T06:08:51.438Z,11.70
2022-12-04T06:11:23.755Z,12.70
2022-12-04T06:13:52.870Z,13.37
2022-12-04T06:16:23.117Z,11.77
2022-12-04T06:18:53.227Z,13.47
2022-12-04T06:21:24.560Z,13.77
2022-12-04T06:23:54.155Z,11.77
2022-12-04T06:26:25.636Z,12.87
2022-12-04T06:28:56.842Z,12.00
2022-12-04T06:31:28.049Z,11.63
2022-12-04T06:33:59.240Z,11.43
2022-12-04T06:36:27.912Z,12.23
2022-12-04T06:38:57.996Z,13.33
2022-12-04T06:41:29.980Z,13.93
2022-12-04T06:43:58.931Z,13.47
2022-12-04T06:46:32.599Z,12.13
2022-12-04T06:49:03.656Z,12.43
2022-12-04T06:51:34.480Z,12.47
2022-12-04T06:54:04.721Z,12.10
2022-12-04T06:56:35.317Z,12.77
2022-12-04T06:59:05.477Z,13.30
2022-12-04T07:01:35.837Z,13.20
2022-12-04T07:04:06.175Z,12.67
2022-12-04T07:06:38.390Z,12.50
2022-12-04T07:09:11.495Z,12.27
2022-12-04T07:11:43.347Z,12.33
2022-12-04T07:14:12.517Z,13.40
2022-12-04T07:16:43.288Z,13.67
2022-12-04T07:19:14.388Z,12.70
2022-12-04T07:21:44.921Z,12.87
2022-12-04T07:24:16.898Z,14.17
2022-12-04T07:26:48.011Z,14.67
2022-12-04T07:29:16.157Z,14.03
2022-12-04T07:31:45.304Z,13.50
2022-12-04T07:34:13.526Z,14.03
2022-12-04T07:36:42.155Z,14.10
2022-12-04T07:39:10.816Z,14.87
2022-12-04T07:41:39.798Z,14.73
2022-12-04T07:44:10.711Z,14.47
2022-12-04T07:46:39.633Z,13.23
2022-12-04T07:49:08.186Z,12.80
2022-12-04T07:51:37.355Z,14.07
2022-12-04T07:54:06.057Z,13.73
2022-12-04T07:56:34.797Z,14.47
2022-12-04T07:59:04.129Z,13.80
2022-12-04T08:01:33.974Z,14.07
2022-12-04T08:04:04.607Z,13.73
2022-12-04T08:06:36.352Z,13.70
2022-12-04T08:09:09.784Z,12.57
2022-12-04T08:11:39.623Z,12.97
2022-12-04T08:14:09.762Z,14.33
2022-12-04T08:16:39.329Z,12.83
2022-12-04T08:19:08.962Z,13.57
2022-12-04T08:21:37.604Z,12.93
2022-12-04T08:24:06.346Z,14.67
2022-12-04T08:26:35.604Z,13.53
2022-12-04T08:29:06.634Z,15.00
2022-12-04T08:31:38.088Z,16.87
2022-12-04T08:34:09.207Z,14.93
2022-12-04T08:36:38.506Z,14.77
2022-12-04T08:39:07.251Z,15.30
2022-12-04T08:41:35.658Z,15.43
2022-12-04T08:44:04.412Z,15.03
2022-12-04T08:46:33.090Z,15.27
2022-12-04T08:49:03.821Z,14.27
2022-12-04T08:51:35.477Z,15.30
2022-12-04T08:54:07.776Z,14.23
2022-12-04T08:56:37.910Z,15.80
2022-12-04T08:59:07.246Z,14.50
2022-12-04T09:01:35.463Z,14.53
2022-12-04T09:04:06.079Z,14.83
2022-12-04T09:06:34.903Z,15.80
2022-12-04T09:09:03.569Z,15.13
2022-12-04T09:11:32.939Z,15.10
2022-12-04T09:14:03.717Z,15.27
2022-12-04T09:16:32.628Z,13.87
2022-12-04T09:19:00.768Z,17.37
2022-12-04T09:21:30.742Z,15.67
2022-12-04T09:24:01.021Z,15.20
2022-12-04T09:26:33.734Z,14.83
2022-12-04T09:29:05.558Z,14.63
2022-12-04T09:31:34.471Z,14.03
2022-12-04T09:34:03.589Z,13.83
2022-12-04T09:36:33.081Z,14.27
2022-12-04T09:39:01.245Z,14.13
2022-12-04T09:41:52.622Z,13.50
2022-12-04T09:44:25.945Z,13.97
2022-12-04T09:47:01.830Z,13.63
2022-12-04T09:49:41.184Z,12.70
2022-12-04T09:52:30.836Z,13.83
2022-12-04T09:55:03.435Z,13.13
2022-12-04T09:57:42.878Z,12.80
2022-12-04T10:00:15.294Z,14.17
2022-12-04T10:02:49.583Z,13.30
2022-12-04T10:05:23.475Z,12.60
2022-12-04T10:08:08.259Z,13.33
2022-12-04T10:10:42.396Z,12.67
2022-12-04T10:13:41.654Z,12.40
2022-12-04T10:16:21.572Z,12.47
2022-12-04T10:19:03.575Z,12.33
2022-12-04T10:21:51.177Z,13.80
2022-12-04T10:24:40.101Z,14.03
2022-12-04T10:27:19.908Z,13.73
2022-12-04T10:29:54.566Z,13.37
2022-12-04T10:32:27.934Z,12.50
2022-12-04T10:35:17.029Z,13.93
2022-12-04T10:37:49.581Z,12.70
2022-12-04T10:40:27.311Z,12.50
2022-12-04T10:43:04.344Z,13.53
2022-12-04T10:45:32.595Z,13.73
2022-12-04T10:48:02.574Z,12.07
2022-12-04T10:50:32.265Z,12.80
2022-12-04T10:53:00.604Z,13.30
2022-12-04T10:55:34.505Z,14.57
2022-12-04T10:58:03.254Z,14.07
2022-12-04T11:00:34.612Z,14.00
2022-12-04T11:03:11.823Z,13.67
2022-12-04T11:05:47.164Z,14.23
2022-12-04T11:08:27.392Z,13.90
2022-12-04T11:11:05.311Z,14.83
2022-12-04T11:13:34.222Z,15.17
2022-12-04T11:16:02.497Z,14.73
2022-12-04T11:27:55.074Z,12.47
2022-12-04T11:30:30.986Z,13.40
2022-12-04T11:33:01.129Z,13.73
2022-12-04T11:35:32.046Z,13.90
2022-12-04T11:38:09.311Z,14.27
2022-12-04T11:40:39.462Z,13.97
2022-12-04T11:43:17.534Z,14.07
2022-12-04T11:45:57.183Z,15.23
2022-12-04T11:48:25.852Z,14.30
2022-12-04T11:51:05.402Z,13.57
2022-12-04T11:53:48.573Z,12.60
2022-12-04T11:56:27.867Z,13.93
2022-12-04T11:59:40.101Z,13.50
2022-12-04T12:02:35.337Z,14.83
2022-12-04T12:05:37.564Z,14.00
2022-12-04T12:08:18.684Z,16.23
2022-12-04T12:11:03.380Z,15.33
2022-12-04T12:13:51.090Z,14.33
2022-12-04T12:16:33.145Z,14.63
2022-12-04T12:19:28.808Z,14.43
2022-12-04T12:22:09.889Z,15.90
2022-12-04T12:24:55.652Z,14.57
2022-12-04T12:27:51.746Z,14.97
2022-12-04T12:30:23.198Z,15.87
2022-12-04T12:33:16.397Z,22.50
2022-12-04T12:35:59.366Z,18.10
2022-12-04T12:38:34.812Z,17.53
2022-12-04T12:41:08.796Z,14.20
2022-12-04T12:43:41.243Z,12.37
2022-12-04T12:46:15.886Z,13.00
2022-12-04T12:48:58.650Z,12.50
2022-12-04T12:51:38.685Z,13.70
2022-12-04T12:54:19.298Z,13.47
2022-12-04T12:56:56.119Z,14.33
2022-12-04T12:59:29.602Z,11.97
2022-12-04T13:02:07.561Z,13.63
2022-12-04T13:04:45.165Z,14.20
2022-12-04T13:07:32.108Z,13.97
2022-12-04T13:10:08.726Z,16.07
2022-12-04T13:12:46.617Z,13.53
2022-12-04T13:15:18.640Z,12.77
2022-12-04T13:17:52.141Z,14.03
2022-12-04T13:20:26.350Z,13.60
2022-12-04T13:23:20.896Z,14.77
2022-12-04T13:26:04.907Z,12.47
2022-12-04T13:28:52.291Z,26.60
2022-12-04T13:31:38.618Z,13.27
2022-12-04T13:34:34.698Z,12.17
2022-12-04T13:37:47.241Z,12.27
2022-12-04T13:40:37.284Z,12.63
2022-12-04T13:43:36.629Z,12.07
2022-12-04T13:46:09.030Z,13.03
2022-12-04T13:48:41.883Z,11.87
2022-12-04T13:51:35.298Z,11.33
2022-12-04T13:54:25.646Z,11.70
2022-12-04T13:56:57.310Z,10.50
2022-12-04T13:59:39.768Z,11.47
2022-12-04T14:02:28.819Z,12.57
2022-12-04T14:05:05.372Z,10.93
2022-12-04T14:07:37.282Z,10.77
2022-12-04T14:10:27.962Z,12.13
2022-12-04T14:13:03.974Z,10.87
2022-12-04T14:15:36.788Z,9.93
2022-12-04T14:18:25.765Z,11.43
2022-12-04T14:21:03.091Z,11.50
2022-12-04T14:23:38.971Z,10.57
2022-12-04T14:26:22.517Z,11.47
2022-12-04T14:28:52.392Z,11.37
2022-12-04T14:31:32.349Z,10.60
2022-12-04T14:34:05.106Z,10.30
2022-12-04T14:36:42.528Z,10.20
2022-12-04T14:39:21.754Z,9.90
2022-12-04T14:41:52.246Z,10.50
2022-12-04T14:44:30.748Z,10.80
2022-12-04T14:47:14.924Z,12.73
2022-12-04T14:50:04.079Z,9.27
2022-12-04T14:52:41.742Z,9.73
2022-12-04T14:55:27.903Z,9.63
2022-12-04T14:58:01.083Z,10.47
2022-12-04T15:00:30.025Z,11.20
2022-12-04T15:03:02.778Z,10.87
2022-12-04T15:05:34.344Z,16.97
2022-12-04T15:08:05.790Z,22.47
2022-12-04T15:10:54.257Z,25.10
2022-12-04T15:13:30.497Z,23.80
2022-12-04T15:15:59.776Z,27.13
2022-12-04T15:18:29.086Z,31.10
2022-12-04T15:21:02.493Z,14.93
2022-12-04T15:23:37.168Z,29.47
2022-12-04T15:26:12.760Z,15.80
2022-12-04T15:28:51.055Z,14.30
2022-12-04T15:31:23.750Z,11.83
2022-12-04T15:34:03.945Z,9.57
2022-12-04T15:36:47.791Z,10.53
2022-12-04T15:39:20.763Z,11.60
2022-12-04T15:41:50.108Z,10.70
2022-12-04T15:44:32.672Z,12.13
2022-12-04T15:47:15.942Z,12.07
2022-12-04T15:49:44.110Z,11.53
2022-12-04T15:52:18.823Z,11.10
2022-12-04T15:54:56.966Z,11.13
2022-12-04T15:57:31.871Z,10.70
2022-12-04T16:00:05.267Z,10.83
2022-12-04T16:02:37.183Z,12.20
2022-12-04T16:05:14.596Z,10.17
2022-12-04T16:07:53.390Z,10.47
2022-12-04T16:10:25.045Z,10.97
2022-12-04T16:12:55.497Z,10.57
2022-12-04T16:15:35.127Z,10.47
2022-12-04T16:18:05.884Z,9.27
2022-12-04T16:20:36.228Z,9.83
2022-12-04T16:23:07.049Z,9.93
2022-12-04T16:25:35.179Z,10.30
2022-12-04T16:28:03.545Z,12.23
2022-12-04T16:30:36.074Z,11.17
2022-12-04T16:33:04.646Z,14.90
2022-12-04T16:35:32.878Z,16.87
2022-12-04T16:38:01.181Z,13.63
2022-12-04T16:40:29.328Z,11.20
2022-12-04T16:42:57.566Z,10.83
2022-12-04T16:49:18.616Z,11.37
2022-12-04T16:51:50.830Z,9.87
2022-12-04T16:54:19.307Z,11.20
2022-12-04T16:56:47.464Z,10.47
2022-12-04T16:59:16.050Z,10.70
2022-12-04T17:01:48.934Z,9.77
2022-12-04T17:04:19.755Z,10.00
2022-12-04T17:06:48.734Z,11.43
2022-12-04T17:09:17.125Z,10.40
2022-12-04T17:11:46.061Z,10.80
2022-12-04T17:14:15.291Z,10.00
2022-12-04T17:16:46.670Z,11.27
2022-12-04T17:19:16.238Z,11.40
2022-12-04T17:21:46.326Z,10.80
2022-12-04T17:24:14.607Z,9.73
2022-12-04T17:26:42.896Z,10.70
2022-12-04T17:29:11.157Z,22.17
2022-12-04T17:31:40.877Z,18.93
2022-12-04T17:34:09.003Z,15.90
2022-12-04T17:36:37.514Z,15.10
2022-12-04T17:39:08.385Z,37.37
2022-12-04T17:41:36.565Z,22.13
2022-12-04T17:44:04.716Z,16.23
2022-12-04T17:46:33.205Z,16.83
2022-12-04T17:49:06.853Z,13.90
2022-12-04T17:51:36.180Z,11.07
2022-12-04T17:54:05.155Z,10.67
2022-12-04T17:56:35.383Z,9.57
2022-12-04T17:59:04.850Z,11.53
2022-12-04T18:01:35.348Z,11.00
2022-12-04T18:04:07.573Z,10.77
2022-12-04T18:06:38.986Z,11.80
2022-12-04T18:09:09.723Z,12.07
2022-12-04T18:11:43.970Z,13.73
2022-12-04T18:14:17.229Z,15.40
2022-12-04T18:16:52.882Z,11.13
2022-12-04T18:19:24.042Z,11.77
2022-12-04T18:21:54.398Z,12.13
2022-12-04T18:24:24.971Z,11.20
2022-12-04T18:26:55.255Z,11.07
2022-12-04T18:29:26.583Z,12.23
2022-12-04T18:31:56.619Z,13.87
2022-12-04T18:34:25.621Z,13.00
2022-12-04T18:36:53.784Z,12.00
2022-12-04T18:39:26.328Z,12.30
2022-12-04T18:41:57.927Z,12.93
2022-12-04T18:44:26.776Z,12.70
2022-12-04T18:46:55.437Z,10.17
2022-12-04T18:49:24.416Z,10.23
2022-12-04T18:51:53.814Z,10.43
2022-12-04T18:54:25.096Z,11.50
2022-12-04T18:56:53.936Z,10.47
2022-12-04T18:59:26.382Z,13.30
2022-12-04T19:01:55.862Z,11.30
2022-12-04T19:04:26.848Z,13.27
2022-12-04T19:06:57.078Z,12.10
2022-12-04T19:10:08.931Z,11.30
2022-12-04T19:12:19.409Z,12.10
2022-12-04T19:14:48.713Z,12.93
2022-12-04T19:17:16.950Z,12.13
2022-12-04T19:19:45.380Z,15.97
2022-12-04T19:22:13.818Z,12.63
2022-12-04T19:24:42.522Z,10.40
2022-12-04T19:27:12.312Z,10.20
2022-12-04T19:29:43.294Z,9.73
2022-12-04T19:32:13.291Z,9.80
2022-12-04T19:34:42.987Z,10.83
2022-12-04T19:37:11.606Z,10.40
2022-12-04T19:39:39.956Z,9.47
2022-12-04T19:42:08.471Z,9.10
2022-12-04T19:44:52.241Z,11.23
2022-12-04T19:47:22.757Z,9.20
2022-12-04T19:49:50.845Z,10.10
2022-12-04T19:52:19.932Z,11.17
2022-12-04T19:54:48.802Z,8.87
2022-12-04T19:57:17.195Z,9.57
2022-12-04T19:59:47.053Z,8.70
2022-12-04T20:02:15.903Z,9.43
2022-12-04T20:04:46.207Z,8.63
2022-12-04T20:07:14.568Z,10.40
2022-12-04T20:09:54.778Z,10.23
2022-12-04T20:12:24.475Z,10.13
2022-12-04T20:14:52.732Z,10.43
2022-12-04T20:17:21.304Z,10.93
2022-12-04T20:19:51.294Z,11.03
2022-12-04T20:22:19.556Z,10.87
2022-12-04T20:24:48.673Z,11.90
2022-12-04T20:27:16.998Z,11.37
2022-12-04T20:29:45.602Z,11.93
2022-12-04T20:32:13.934Z,12.40
2022-12-04T20:34:43.930Z,12.20
2022-12-04T20:37:13.616Z,13.30
2022-12-04T20:39:42.066Z,12.13
2022-12-04T20:42:10.274Z,12.77
2022-12-04T20:44:38.395Z,12.53
2022-12-04T20:47:06.528Z,11.87
2022-12-04T20:49:34.866Z,10.97
2022-12-04T20:52:03.094Z,11.80
2022-12-04T20:54:39.440Z,10.80
2022-12-04T20:57:09.776Z,15.33
2022-12-04T20:59:38.754Z,12.00
2022-12-04T21:02:07.005Z,11.27
2022-12-04T21:04:38.913Z,10.17
2022-12-04T21:07:07.565Z,30.30
2022-12-04T21:09:37.819Z,22.77
2022-12-04T21:12:29.264Z,14.70
2022-12-04T21:15:15.097Z,12.67
2022-12-04T21:17:43.184Z,14.13
2022-12-04T21:20:13.046Z,15.50
2022-12-04T21:22:41.697Z,15.60
2022-12-04T21:25:12.251Z,15.50
2022-12-04T21:27:40.566Z,14.37
2022-12-04T21:30:10.683Z,12.10
2022-12-04T21:32:39.114Z,11.83
2022-12-04T21:35:08.261Z,11.27
2022-12-04T21:37:37.103Z,13.13
2022-12-04T21:40:06.812Z,17.17
2022-12-04T21:42:36.634Z,11.73
2022-12-04T21:45:07.905Z,11.23
2022-12-04T21:47:37.183Z,11.30
2022-12-04T21:50:07.127Z,21.30
2022-12-04T21:52:35.183Z,21.17
2022-12-04T21:55:03.315Z,20.83
2022-12-04T21:57:31.550Z,16.53
2022-12-04T22:00:01.389Z,16.80
2022-12-04T22:02:32.416Z,13.53
2022-12-04T22:05:00.565Z,15.03
2022-12-04T22:07:28.766Z,14.83
2022-12-04T22:09:57.795Z,13.97
2022-12-04T22:12:48.458Z,13.63
2022-12-04T22:15:16.151Z,12.33
2022-12-04T22:17:44.240Z,14.67
2022-12-04T22:20:13.207Z,14.10
2022-12-04T22:22:41.846Z,13.43
2022-12-04T22:25:10.970Z,12.10
2022-12-04T22:27:39.262Z,12.63
2022-12-04T22:30:10.425Z,11.23
2022-12-04T22:32:40.318Z,10.07
2022-12-04T22:35:09.632Z,11.07
2022-12-04T22:37:44.137Z,15.03
2022-12-04T22:40:14.560Z,13.03
2022-12-04T22:42:44.002Z,13.73
2022-12-04T22:45:13.656Z,12.60
2022-12-04T22:47:44.755Z,11.77
2022-12-04T22:50:14.257Z,10.37
2022-12-04T22:52:42.339Z,9.70
2022-12-04T22:55:10.916Z,9.37
2022-12-04T22:57:39.050Z,8.80
2022-12-04T23:00:10.006Z,9.60
2022-12-04T23:02:38.579Z,9.17
2022-12-04T23:05:08.548Z,9.13
2022-12-04T23:07:38.539Z,7.87
2022-12-04T23:10:08.844Z,8.90
2022-12-04T23:12:37.075Z,9.37
2022-12-04T23:15:07.181Z,9.10
2022-12-04T23:17:35.855Z,8.83
2022-12-04T23:20:05.569Z,9.33
2022-12-04T23:22:36.200Z,9.00
2022-12-04T23:25:05.651Z,9.20
2022-12-04T23:27:35.059Z,9.03
2022-12-04T23:30:03.641Z,9.80
2022-12-04T23:32:31.765Z,8.80
2022-12-04T23:35:00.210Z,7.90
2022-12-04T23:37:28.309Z,8.73
2022-12-04T23:39:58.010Z,7.93
2022-12-04T23:42:26.615Z,7.63
2022-12-04T23:44:54.708Z,7.93
2022-12-04T23:47:22.865Z,8.03
2022-12-04T23:49:51.478Z,8.03
2022-12-04T23:52:19.719Z,7.83
2022-12-04T23:54:48.041Z,7.47
2022-12-04T23:57:17.492Z,6.57
2022-12-04T23:59:46.251Z,7.70
